sensor_id;sensor_type;location;lat;lon;timestamp;P1;durP1;ratioP1;P2;durP2;ratioP2
67340;SDS011;54227;45.198;5.732;2022-09-09T00:04:05;0.20;;;0.20;;
67340;SDS011;54227;45.198;5.732;2022-09-09T00:09:34;0.30;;;0.30;;
67340;SDS011;54227;45.198;5.732;2022-09-09T00:12:22;0.57;;;0.30;;
67340;SDS011;54227;45.198;5.732;2022-09-09T00:14:54;1.08;;;0.30;;
67340;SDS011;54227;45.198;5.732;2022-09-09T00:17:32;0.20;;;0.20;;
67340;SDS011;54227;45.198;5.732;2022-09-09T00:20:02;0.30;;;0.30;;
67340;SDS011;54227;45.198;5.732;2022-09-09T00:22:44;0.40;;;0.40;;
67340;SDS011;54227;45.198;5.732;2022-09-09T00:25:18;0.20;;;0.20;;
67340;SDS011;54227;45.198;5.732;2022-09-09T00:27:59;0.20;;;0.20;;
67340;SDS011;54227;45.198;5.732;2022-09-09T00:30:26;0.10;;;0.10;;
67340;SDS011;54227;45.198;5.732;2022-09-09T00:33:00;0.20;;;0.20;;
67340;SDS011;54227;45.198;5.732;2022-09-09T00:35:37;0.25;;;0.20;;
67340;SDS011;54227;45.198;5.732;2022-09-09T00:38:09;0.22;;;0.20;;
67340;SDS011;54227;45.198;5.732;2022-09-09T00:40:41;0.20;;;0.20;;
67340;SDS011;54227;45.198;5.732;2022-09-09T00:43:24;0.25;;;0.25;;
67340;SDS011;54227;45.198;5.732;2022-09-09T00:48:21;0.20;;;0.13;;
67340;SDS011;54227;45.198;5.732;2022-09-09T00:50:53;0.20;;;0.20;;
67340;SDS011;54227;45.198;5.732;2022-09-09T00:53:38;0.30;;;0.30;;
67340;SDS011;54227;45.198;5.732;2022-09-09T00:56:29;0.10;;;0.10;;
67340;SDS011;54227;45.198;5.732;2022-09-09T01:01:35;0.35;;;0.32;;
67340;SDS011;54227;45.198;5.732;2022-09-09T01:04:00;1.38;;;0.47;;
67340;SDS011;54227;45.198;5.732;2022-09-09T01:06:34;0.20;;;0.20;;
67340;SDS011;54227;45.198;5.732;2022-09-09T01:15:40;0.10;;;0.10;;
67340;SDS011;54227;45.198;5.732;2022-09-09T01:18:06;0.90;;;0.20;;
67340;SDS011;54227;45.198;5.732;2022-09-09T01:21:23;0.28;;;0.20;;
67340;SDS011;54227;45.198;5.732;2022-09-09T01:23:42;0.20;;;0.20;;
67340;SDS011;54227;45.198;5.732;2022-09-09T01:26:21;0.22;;;0.20;;
67340;SDS011;54227;45.198;5.732;2022-09-09T01:28:52;0.40;;;0.22;;
67340;SDS011;54227;45.198;5.732;2022-09-09T01:31:36;0.30;;;0.30;;
67340;SDS011;54227;45.198;5.732;2022-09-09T01:34:13;0.22;;;0.20;;
67340;SDS011;54227;45.198;5.732;2022-09-09T01:36:44;0.10;;;0.10;;
67340;SDS011;54227;45.198;5.732;2022-09-09T01:39:16;0.30;;;0.20;;
67340;SDS011;54227;45.198;5.732;2022-09-09T01:41:42;0.20;;;0.17;;
67340;SDS011;54227;45.198;5.732;2022-09-09T01:44:08;0.20;;;0.20;;
67340;SDS011;54227;45.198;5.732;2022-09-09T01:46:34;0.20;;;0.20;;
67340;SDS011;54227;45.198;5.732;2022-09-09T01:49:00;0.20;;;0.20;;
67340;SDS011;54227;45.198;5.732;2022-09-09T01:51:29;0.20;;;0.17;;
67340;SDS011;54227;45.198;5.732;2022-09-09T01:53:55;0.40;;;0.20;;
67340;SDS011;54227;45.198;5.732;2022-09-09T02:04:41;0.20;;;0.20;;
67340;SDS011;54227;45.198;5.732;2022-09-09T02:07:14;0.22;;;0.20;;
67340;SDS011;54227;45.198;5.732;2022-09-09T02:12:55;0.30;;;0.20;;
67340;SDS011;54227;45.198;5.732;2022-09-09T02:18:18;0.10;;;0.10;;
67340;SDS011;54227;45.198;5.732;2022-09-09T02:20:51;0.22;;;0.20;;
67340;SDS011;54227;45.198;5.732;2022-09-09T02:23:18;0.25;;;0.20;;
67340;SDS011;54227;45.198;5.732;2022-09-09T02:25:44;0.20;;;0.20;;
67340;SDS011;54227;45.198;5.732;2022-09-09T02:28:11;0.28;;;0.22;;
67340;SDS011;54227;45.198;5.732;2022-09-09T02:30:40;0.20;;;0.20;;
67340;SDS011;54227;45.198;5.732;2022-09-09T02:33:12;0.22;;;0.20;;
67340;SDS011;54227;45.198;5.732;2022-09-09T02:35:39;0.38;;;0.30;;
67340;SDS011;54227;45.198;5.732;2022-09-09T02:38:09;0.30;;;0.30;;
67340;SDS011;54227;45.198;5.732;2022-09-09T02:40:38;0.50;;;0.30;;
67340;SDS011;54227;45.198;5.732;2022-09-09T02:43:04;0.22;;;0.22;;
67340;SDS011;54227;45.198;5.732;2022-09-09T02:46:35;0.10;;;0.10;;
67340;SDS011;54227;45.198;5.732;2022-09-09T02:48:41;0.20;;;0.20;;
67340;SDS011;54227;45.198;5.732;2022-09-09T02:56:56;0.20;;;0.20;;
67340;SDS011;54227;45.198;5.732;2022-09-09T02:59:36;0.22;;;0.20;;
67340;SDS011;54227;45.198;5.732;2022-09-09T03:02:03;0.20;;;0.15;;
67340;SDS011;54227;45.198;5.732;2022-09-09T03:04:29;0.20;;;0.20;;
67340;SDS011;54227;45.198;5.732;2022-09-09T03:06:56;0.30;;;0.20;;
67340;SDS011;54227;45.198;5.732;2022-09-09T03:09:22;0.20;;;0.20;;
67340;SDS011;54227;45.198;5.732;2022-09-09T03:11:47;0.20;;;0.20;;
67340;SDS011;54227;45.198;5.732;2022-09-09T03:14:14;0.50;;;0.28;;
67340;SDS011;54227;45.198;5.732;2022-09-09T03:16:40;0.47;;;0.20;;
67340;SDS011;54227;45.198;5.732;2022-09-09T03:19:07;0.25;;;0.25;;
67340;SDS011;54227;45.198;5.732;2022-09-09T03:21:32;0.10;;;0.10;;
67340;SDS011;54227;45.198;5.732;2022-09-09T03:23:58;0.35;;;0.20;;
67340;SDS011;54227;45.198;5.732;2022-09-09T03:26:23;0.40;;;0.22;;
67340;SDS011;54227;45.198;5.732;2022-09-09T03:28:49;0.30;;;0.30;;
67340;SDS011;54227;45.198;5.732;2022-09-09T03:31:17;0.30;;;0.20;;
67340;SDS011;54227;45.198;5.732;2022-09-09T03:33:44;0.28;;;0.25;;
67340;SDS011;54227;45.198;5.732;2022-09-09T03:36:09;0.20;;;0.20;;
67340;SDS011;54227;45.198;5.732;2022-09-09T03:38:35;0.15;;;0.15;;
67340;SDS011;54227;45.198;5.732;2022-09-09T03:41:01;0.20;;;0.20;;
67340;SDS011;54227;45.198;5.732;2022-09-09T03:43:27;0.30;;;0.30;;
67340;SDS011;54227;45.198;5.732;2022-09-09T03:45:54;0.10;;;0.10;;
67340;SDS011;54227;45.198;5.732;2022-09-09T03:48:23;0.20;;;0.20;;
67340;SDS011;54227;45.198;5.732;2022-09-09T03:50:50;0.10;;;0.10;;
67340;SDS011;54227;45.198;5.732;2022-09-09T03:53:17;0.20;;;0.20;;
67340;SDS011;54227;45.198;5.732;2022-09-09T03:55:45;0.10;;;0.10;;
67340;SDS011;54227;45.198;5.732;2022-09-09T03:58:13;0.15;;;0.15;;
67340;SDS011;54227;45.198;5.732;2022-09-09T04:00:39;0.30;;;0.20;;
67340;SDS011;54227;45.198;5.732;2022-09-09T04:03:07;0.30;;;0.20;;
67340;SDS011;54227;45.198;5.732;2022-09-09T04:05:34;0.30;;;0.30;;
67340;SDS011;54227;45.198;5.732;2022-09-09T04:07:59;0.10;;;0.10;;
67340;SDS011;54227;45.198;5.732;2022-09-09T04:10:25;0.28;;;0.20;;
67340;SDS011;54227;45.198;5.732;2022-09-09T04:12:50;0.30;;;0.22;;
67340;SDS011;54227;45.198;5.732;2022-09-09T04:15:15;0.30;;;0.30;;
67340;SDS011;54227;45.198;5.732;2022-09-09T04:17:43;0.20;;;0.20;;
67340;SDS011;54227;45.198;5.732;2022-09-09T04:20:09;0.22;;;0.20;;
67340;SDS011;54227;45.198;5.732;2022-09-09T04:22:37;0.30;;;0.30;;
67340;SDS011;54227;45.198;5.732;2022-09-09T04:25:04;1.23;;;0.20;;
67340;SDS011;54227;45.198;5.732;2022-09-09T04:27:30;0.57;;;0.20;;
67340;SDS011;54227;45.198;5.732;2022-09-09T04:29:56;1.38;;;0.40;;
67340;SDS011;54227;45.198;5.732;2022-09-09T04:32:22;0.28;;;0.28;;
67340;SDS011;54227;45.198;5.732;2022-09-09T04:34:48;0.20;;;0.20;;
67340;SDS011;54227;45.198;5.732;2022-09-09T04:37:14;0.30;;;0.20;;
67340;SDS011;54227;45.198;5.732;2022-09-09T04:39:39;0.63;;;0.32;;
67340;SDS011;54227;45.198;5.732;2022-09-09T04:42:04;0.28;;;0.28;;
67340;SDS011;54227;45.198;5.732;2022-09-09T04:44:30;0.20;;;0.20;;
67340;SDS011;54227;45.198;5.732;2022-09-09T04:46:55;2.63;;;0.40;;
67340;SDS011;54227;45.198;5.732;2022-09-09T04:49:21;0.20;;;0.20;;
67340;SDS011;54227;45.198;5.732;2022-09-09T04:51:48;0.10;;;0.10;;
67340;SDS011;54227;45.198;5.732;2022-09-09T04:54:14;0.20;;;0.20;;
67340;SDS011;54227;45.198;5.732;2022-09-09T04:56:39;0.25;;;0.25;;
67340;SDS011;54227;45.198;5.732;2022-09-09T04:59:07;0.30;;;0.20;;
67340;SDS011;54227;45.198;5.732;2022-09-09T05:01:32;0.30;;;0.30;;
67340;SDS011;54227;45.198;5.732;2022-09-09T05:03:58;0.20;;;0.20;;
67340;SDS011;54227;45.198;5.732;2022-09-09T05:06:24;0.30;;;0.30;;
67340;SDS011;54227;45.198;5.732;2022-09-09T05:08:50;0.20;;;0.20;;
67340;SDS011;54227;45.198;5.732;2022-09-09T05:11:23;0.77;;;0.30;;
67340;SDS011;54227;45.198;5.732;2022-09-09T05:13:50;9.98;;;0.65;;
67340;SDS011;54227;45.198;5.732;2022-09-09T05:16:17;8.07;;;0.50;;
67340;SDS011;54227;45.198;5.732;2022-09-09T05:18:43;1.02;;;0.28;;
67340;SDS011;54227;45.198;5.732;2022-09-09T05:21:10;2.70;;;0.40;;
67340;SDS011;54227;45.198;5.732;2022-09-09T05:23:36;4.85;;;0.50;;
67340;SDS011;54227;45.198;5.732;2022-09-09T05:26:02;4.20;;;0.30;;
67340;SDS011;54227;45.198;5.732;2022-09-09T05:28:29;1.05;;;0.28;;
67340;SDS011;54227;45.198;5.732;2022-09-09T05:30:56;5.10;;;0.47;;
67340;SDS011;54227;45.198;5.732;2022-09-09T05:33:25;3.55;;;0.40;;
67340;SDS011;54227;45.198;5.732;2022-09-09T05:35:58;4.78;;;0.30;;
67340;SDS011;54227;45.198;5.732;2022-09-09T05:38:25;4.93;;;0.30;;
67340;SDS011;54227;45.198;5.732;2022-09-09T05:40:51;0.20;;;0.20;;
67340;SDS011;54227;45.198;5.732;2022-09-09T05:43:17;3.65;;;0.50;;
67340;SDS011;54227;45.198;5.732;2022-09-09T05:45:45;1.02;;;0.30;;
67340;SDS011;54227;45.198;5.732;2022-09-09T05:48:13;0.82;;;0.30;;
67340;SDS011;54227;45.198;5.732;2022-09-09T05:50:40;0.95;;;0.25;;
67340;SDS011;54227;45.198;5.732;2022-09-09T05:53:06;0.57;;;0.30;;
67340;SDS011;54227;45.198;5.732;2022-09-09T05:55:31;0.85;;;0.45;;
67340;SDS011;54227;45.198;5.732;2022-09-09T05:57:57;1.08;;;0.50;;
67340;SDS011;54227;45.198;5.732;2022-09-09T06:00:22;0.47;;;0.30;;
67340;SDS011;54227;45.198;5.732;2022-09-09T06:02:51;0.55;;;0.20;;
67340;SDS011;54227;45.198;5.732;2022-09-09T06:05:17;0.35;;;0.30;;
67340;SDS011;54227;45.198;5.732;2022-09-09T06:07:43;0.50;;;0.32;;
67340;SDS011;54227;45.198;5.732;2022-09-09T06:10:10;0.52;;;0.30;;
67340;SDS011;54227;45.198;5.732;2022-09-09T06:12:38;0.45;;;0.30;;
67340;SDS011;54227;45.198;5.732;2022-09-09T06:15:04;0.70;;;0.35;;
67340;SDS011;54227;45.198;5.732;2022-09-09T06:17:30;0.68;;;0.30;;
67340;SDS011;54227;45.198;5.732;2022-09-09T06:19:55;0.70;;;0.40;;
67340;SDS011;54227;45.198;5.732;2022-09-09T06:22:20;0.30;;;0.30;;
67340;SDS011;54227;45.198;5.732;2022-09-09T06:24:46;0.35;;;0.30;;
67340;SDS011;54227;45.198;5.732;2022-09-09T06:27:11;0.90;;;0.38;;
67340;SDS011;54227;45.198;5.732;2022-09-09T06:29:38;0.85;;;0.40;;
67340;SDS011;54227;45.198;5.732;2022-09-09T06:32:04;0.50;;;0.43;;
67340;SDS011;54227;45.198;5.732;2022-09-09T06:34:29;0.32;;;0.30;;
67340;SDS011;54227;45.198;5.732;2022-09-09T06:36:55;0.43;;;0.35;;
67340;SDS011;54227;45.198;5.732;2022-09-09T06:39:22;1.20;;;0.40;;
67340;SDS011;54227;45.198;5.732;2022-09-09T06:41:48;0.75;;;0.38;;
67340;SDS011;54227;45.198;5.732;2022-09-09T06:44:14;0.35;;;0.20;;
67340;SDS011;54227;45.198;5.732;2022-09-09T06:46:40;0.50;;;0.40;;
67340;SDS011;54227;45.198;5.732;2022-09-09T06:49:05;0.52;;;0.45;;
67340;SDS011;54227;45.198;5.732;2022-09-09T06:51:33;0.90;;;0.40;;
67340;SDS011;54227;45.198;5.732;2022-09-09T06:54:00;0.30;;;0.30;;
67340;SDS011;54227;45.198;5.732;2022-09-09T06:58:55;0.77;;;0.40;;
67340;SDS011;54227;45.198;5.732;2022-09-09T07:01:24;0.80;;;0.50;;
67340;SDS011;54227;45.198;5.732;2022-09-09T07:03:53;0.68;;;0.30;;
67340;SDS011;54227;45.198;5.732;2022-09-09T07:06:24;1.35;;;0.38;;
67340;SDS011;54227;45.198;5.732;2022-09-09T07:08:51;0.60;;;0.50;;
67340;SDS011;54227;45.198;5.732;2022-09-09T07:11:21;0.65;;;0.30;;
67340;SDS011;54227;45.198;5.732;2022-09-09T07:13:48;0.45;;;0.38;;
67340;SDS011;54227;45.198;5.732;2022-09-09T07:16:16;0.50;;;0.50;;
67340;SDS011;54227;45.198;5.732;2022-09-09T07:18:43;0.40;;;0.38;;
67340;SDS011;54227;45.198;5.732;2022-09-09T07:21:10;0.70;;;0.50;;
67340;SDS011;54227;45.198;5.732;2022-09-09T07:23:39;0.28;;;0.28;;
67340;SDS011;54227;45.198;5.732;2022-09-09T07:26:14;1.08;;;0.52;;
67340;SDS011;54227;45.198;5.732;2022-09-09T07:28:40;0.40;;;0.40;;
67340;SDS011;54227;45.198;5.732;2022-09-09T07:31:08;0.85;;;0.50;;
67340;SDS011;54227;45.198;5.732;2022-09-09T07:33:40;0.50;;;0.43;;
67340;SDS011;54227;45.198;5.732;2022-09-09T07:36:07;0.60;;;0.40;;
67340;SDS011;54227;45.198;5.732;2022-09-09T07:38:41;0.85;;;0.50;;
67340;SDS011;54227;45.198;5.732;2022-09-09T07:41:24;1.35;;;0.50;;
67340;SDS011;54227;45.198;5.732;2022-09-09T07:43:55;5.97;;;0.90;;
67340;SDS011;54227;45.198;5.732;2022-09-09T07:46:22;4.07;;;1.05;;
67340;SDS011;54227;45.198;5.732;2022-09-09T07:48:52;5.05;;;1.60;;
67340;SDS011;54227;45.198;5.732;2022-09-09T07:51:32;7.68;;;1.45;;
67340;SDS011;54227;45.198;5.732;2022-09-09T07:54:01;6.50;;;1.70;;
67340;SDS011;54227;45.198;5.732;2022-09-09T07:56:29;4.50;;;1.35;;
67340;SDS011;54227;45.198;5.732;2022-09-09T07:58:55;4.95;;;1.40;;
67340;SDS011;54227;45.198;5.732;2022-09-09T08:01:29;3.13;;;1.60;;
67340;SDS011;54227;45.198;5.732;2022-09-09T08:04:05;4.20;;;1.87;;
67340;SDS011;54227;45.198;5.732;2022-09-09T08:06:52;7.95;;;1.63;;
67340;SDS011;54227;45.198;5.732;2022-09-09T08:09:20;7.70;;;1.55;;
67340;SDS011;54227;45.198;5.732;2022-09-09T08:11:46;5.13;;;1.92;;
67340;SDS011;54227;45.198;5.732;2022-09-09T08:14:12;5.63;;;2.13;;
67340;SDS011;54227;45.198;5.732;2022-09-09T08:16:39;5.35;;;1.60;;
67340;SDS011;54227;45.198;5.732;2022-09-09T08:19:07;4.78;;;1.80;;
67340;SDS011;54227;45.198;5.732;2022-09-09T08:21:33;4.82;;;1.45;;
67340;SDS011;54227;45.198;5.732;2022-09-09T08:24:02;2.63;;;1.52;;
67340;SDS011;54227;45.198;5.732;2022-09-09T08:26:29;2.35;;;1.20;;
67340;SDS011;54227;45.198;5.732;2022-09-09T08:28:56;3.47;;;1.60;;
67340;SDS011;54227;45.198;5.732;2022-09-09T08:33:53;3.30;;;1.60;;
67340;SDS011;54227;45.198;5.732;2022-09-09T08:36:21;3.20;;;1.52;;
67340;SDS011;54227;45.198;5.732;2022-09-09T08:38:51;2.63;;;1.30;;
67340;SDS011;54227;45.198;5.732;2022-09-09T08:53:20;2.20;;;1.27;;
67340;SDS011;54227;45.198;5.732;2022-09-09T08:56:03;1.85;;;1.00;;
67340;SDS011;54227;45.198;5.732;2022-09-09T08:58:45;2.03;;;1.25;;
67340;SDS011;54227;45.198;5.732;2022-09-09T09:10:02;3.22;;;1.20;;
67340;SDS011;54227;45.198;5.732;2022-09-09T09:12:38;2.60;;;1.50;;
67340;SDS011;54227;45.198;5.732;2022-09-09T09:15:21;2.05;;;1.25;;
67340;SDS011;54227;45.198;5.732;2022-09-09T09:17:50;5.43;;;1.15;;
67340;SDS011;54227;45.198;5.732;2022-09-09T09:20:16;5.35;;;2.22;;
67340;SDS011;54227;45.198;5.732;2022-09-09T09:22:49;10.98;;;3.75;;
67340;SDS011;54227;45.198;5.732;2022-09-09T09:27:51;4.75;;;3.13;;
67340;SDS011;54227;45.198;5.732;2022-09-09T09:30:26;7.22;;;2.90;;
67340;SDS011;54227;45.198;5.732;2022-09-09T09:33:05;4.70;;;2.15;;
67340;SDS011;54227;45.198;5.732;2022-09-09T09:35:39;2.97;;;1.40;;
67340;SDS011;54227;45.198;5.732;2022-09-09T09:38:17;6.68;;;1.20;;
67340;SDS011;54227;45.198;5.732;2022-09-09T09:40:52;2.22;;;1.00;;
67340;SDS011;54227;45.198;5.732;2022-09-09T09:48:43;6.78;;;3.22;;
67340;SDS011;54227;45.198;5.732;2022-09-09T09:51:10;10.18;;;4.28;;
67340;SDS011;54227;45.198;5.732;2022-09-09T09:53:40;7.68;;;3.53;;
67340;SDS011;54227;45.198;5.732;2022-09-09T09:56:08;6.70;;;3.40;;
67340;SDS011;54227;45.198;5.732;2022-09-09T10:01:27;8.30;;;2.95;;
67340;SDS011;54227;45.198;5.732;2022-09-09T10:06:43;6.10;;;2.15;;
67340;SDS011;54227;45.198;5.732;2022-09-09T10:11:58;4.38;;;1.83;;
67340;SDS011;54227;45.198;5.732;2022-09-09T10:14:50;5.95;;;1.70;;
67340;SDS011;54227;45.198;5.732;2022-09-09T10:22:35;5.07;;;1.30;;
67340;SDS011;54227;45.198;5.732;2022-09-09T10:33:36;2.08;;;1.20;;
67340;SDS011;54227;45.198;5.732;2022-09-09T10:47:25;1.33;;;0.80;;
67340;SDS011;54227;45.198;5.732;2022-09-09T10:53:13;1.23;;;0.80;;
67340;SDS011;54227;45.198;5.732;2022-09-09T10:55:48;1.65;;;0.63;;
67340;SDS011;54227;45.198;5.732;2022-09-09T10:58:20;2.90;;;0.60;;
67340;SDS011;54227;45.198;5.732;2022-09-09T11:00:54;1.35;;;0.70;;
67340;SDS011;54227;45.198;5.732;2022-09-09T11:03:28;1.50;;;0.73;;
67340;SDS011;54227;45.198;5.732;2022-09-09T11:05:59;1.13;;;0.60;;
67340;SDS011;54227;45.198;5.732;2022-09-09T11:08:30;1.20;;;0.52;;
67340;SDS011;54227;45.198;5.732;2022-09-09T11:10:59;1.58;;;0.70;;
67340;SDS011;54227;45.198;5.732;2022-09-09T11:13:35;0.75;;;0.50;;
67340;SDS011;54227;45.198;5.732;2022-09-09T11:18:55;0.90;;;0.50;;
67340;SDS011;54227;45.198;5.732;2022-09-09T11:21:31;0.60;;;0.47;;
67340;SDS011;54227;45.198;5.732;2022-09-09T11:24:13;0.82;;;0.40;;
67340;SDS011;54227;45.198;5.732;2022-09-09T11:41:05;0.40;;;0.22;;
67340;SDS011;54227;45.198;5.732;2022-09-09T11:43:41;0.85;;;0.40;;
67340;SDS011;54227;45.198;5.732;2022-09-09T11:46:12;2.42;;;0.52;;
67340;SDS011;54227;45.198;5.732;2022-09-09T11:51:26;1.02;;;0.60;;
67340;SDS011;54227;45.198;5.732;2022-09-09T11:53:54;0.93;;;0.47;;
67340;SDS011;54227;45.198;5.732;2022-09-09T12:01:44;0.80;;;0.40;;
67340;SDS011;54227;45.198;5.732;2022-09-09T12:06:58;0.77;;;0.50;;
67340;SDS011;54227;45.198;5.732;2022-09-09T12:19:39;0.93;;;0.45;;
67340;SDS011;54227;45.198;5.732;2022-09-09T12:24:43;0.40;;;0.30;;
67340;SDS011;54227;45.198;5.732;2022-09-09T12:27:24;0.52;;;0.28;;
67340;SDS011;54227;45.198;5.732;2022-09-09T12:32:34;0.90;;;0.40;;
67340;SDS011;54227;45.198;5.732;2022-09-09T12:35:02;0.20;;;0.20;;
67340;SDS011;54227;45.198;5.732;2022-09-09T12:37:51;0.85;;;0.35;;
67340;SDS011;54227;45.198;5.732;2022-09-09T12:42:47;0.77;;;0.40;;
67340;SDS011;54227;45.198;5.732;2022-09-09T12:45:31;0.57;;;0.32;;
67340;SDS011;54227;45.198;5.732;2022-09-09T12:47:58;1.08;;;0.40;;
67340;SDS011;54227;45.198;5.732;2022-09-09T12:50:32;1.23;;;0.60;;
67340;SDS011;54227;45.198;5.732;2022-09-09T12:53:07;0.93;;;0.60;;
67340;SDS011;54227;45.198;5.732;2022-09-09T12:55:36;1.58;;;0.52;;
67340;SDS011;54227;45.198;5.732;2022-09-09T12:58:04;1.20;;;0.40;;
67340;SDS011;54227;45.198;5.732;2022-09-09T13:00:31;1.13;;;0.52;;
67340;SDS011;54227;45.198;5.732;2022-09-09T13:02:59;0.88;;;0.40;;
67340;SDS011;54227;45.198;5.732;2022-09-09T13:05:27;0.98;;;0.40;;
67340;SDS011;54227;45.198;5.732;2022-09-09T13:08:01;0.82;;;0.50;;
67340;SDS011;54227;45.198;5.732;2022-09-09T13:10:28;1.67;;;0.40;;
67340;SDS011;54227;45.198;5.732;2022-09-09T13:12:57;1.02;;;0.60;;
67340;SDS011;54227;45.198;5.732;2022-09-09T13:15:23;1.20;;;0.50;;
67340;SDS011;54227;45.198;5.732;2022-09-09T13:17:57;2.30;;;0.85;;
67340;SDS011;54227;45.198;5.732;2022-09-09T13:20:26;3.00;;;0.88;;
67340;SDS011;54227;45.198;5.732;2022-09-09T13:22:53;1.10;;;0.77;;
67340;SDS011;54227;45.198;5.732;2022-09-09T13:25:21;1.58;;;0.70;;
67340;SDS011;54227;45.198;5.732;2022-09-09T13:27:56;1.05;;;0.65;;
67340;SDS011;54227;45.198;5.732;2022-09-09T13:30:30;1.10;;;0.68;;
67340;SDS011;54227;45.198;5.732;2022-09-09T13:33:00;1.98;;;0.75;;
67340;SDS011;54227;45.198;5.732;2022-09-09T13:35:46;1.10;;;0.50;;
67340;SDS011;54227;45.198;5.732;2022-09-09T13:38:14;0.85;;;0.50;;
67340;SDS011;54227;45.198;5.732;2022-09-09T13:40:40;0.65;;;0.40;;
67340;SDS011;54227;45.198;5.732;2022-09-09T13:43:10;0.68;;;0.50;;
67340;SDS011;54227;45.198;5.732;2022-09-09T13:45:51;0.47;;;0.40;;
67340;SDS011;54227;45.198;5.732;2022-09-09T13:48:21;0.98;;;0.50;;
67340;SDS011;54227;45.198;5.732;2022-09-09T13:51:03;1.10;;;0.40;;
67340;SDS011;54227;45.198;5.732;2022-09-09T13:55:56;0.95;;;0.47;;
67340;SDS011;54227;45.198;5.732;2022-09-09T13:58:22;0.98;;;0.50;;
67340;SDS011;54227;45.198;5.732;2022-09-09T14:00:49;0.95;;;0.40;;
67340;SDS011;54227;45.198;5.732;2022-09-09T14:03:15;0.38;;;0.35;;
67340;SDS011;54227;45.198;5.732;2022-09-09T14:05:41;0.40;;;0.30;;
67340;SDS011;54227;45.198;5.732;2022-09-09T14:08:07;0.43;;;0.40;;
67340;SDS011;54227;45.198;5.732;2022-09-09T14:10:40;0.50;;;0.30;;
67340;SDS011;54227;45.198;5.732;2022-09-09T14:13:06;0.60;;;0.30;;
67340;SDS011;54227;45.198;5.732;2022-09-09T14:15:33;0.52;;;0.30;;
67340;SDS011;54227;45.198;5.732;2022-09-09T14:17:58;1.45;;;0.63;;
67340;SDS011;54227;45.198;5.732;2022-09-09T14:20:24;2.22;;;0.80;;
67340;SDS011;54227;45.198;5.732;2022-09-09T14:22:49;1.45;;;0.50;;
67340;SDS011;54227;45.198;5.732;2022-09-09T14:25:14;1.52;;;0.47;;
67340;SDS011;54227;45.198;5.732;2022-09-09T14:27:40;0.88;;;0.50;;
67340;SDS011;54227;45.198;5.732;2022-09-09T14:30:07;0.82;;;0.40;;
67340;SDS011;54227;45.198;5.732;2022-09-09T14:32:34;1.40;;;0.60;;
67340;SDS011;54227;45.198;5.732;2022-09-09T14:34:59;1.23;;;0.30;;
67340;SDS011;54227;45.198;5.732;2022-09-09T14:37:25;1.15;;;0.30;;
67340;SDS011;54227;45.198;5.732;2022-09-09T14:39:52;1.40;;;0.47;;
67340;SDS011;54227;45.198;5.732;2022-09-09T14:42:19;0.20;;;0.20;;
67340;SDS011;54227;45.198;5.732;2022-09-09T14:44:44;0.70;;;0.30;;
67340;SDS011;54227;45.198;5.732;2022-09-09T14:47:09;1.33;;;0.40;;
67340;SDS011;54227;45.198;5.732;2022-09-09T14:49:35;0.38;;;0.25;;
67340;SDS011;54227;45.198;5.732;2022-09-09T14:52:01;0.38;;;0.28;;
67340;SDS011;54227;45.198;5.732;2022-09-09T14:54:27;0.25;;;0.20;;
67340;SDS011;54227;45.198;5.732;2022-09-09T14:56:53;0.63;;;0.30;;
67340;SDS011;54227;45.198;5.732;2022-09-09T14:59:18;1.20;;;0.30;;
67340;SDS011;54227;45.198;5.732;2022-09-09T15:01:44;0.55;;;0.20;;
67340;SDS011;54227;45.198;5.732;2022-09-09T15:04:10;0.57;;;0.40;;
67340;SDS011;54227;45.198;5.732;2022-09-09T15:06:39;0.32;;;0.20;;
67340;SDS011;54227;45.198;5.732;2022-09-09T15:09:06;0.47;;;0.25;;
67340;SDS011;54227;45.198;5.732;2022-09-09T15:11:34;0.43;;;0.30;;
67340;SDS011;54227;45.198;5.732;2022-09-09T15:14:03;0.73;;;0.25;;
67340;SDS011;54227;45.198;5.732;2022-09-09T15:16:29;0.50;;;0.30;;
67340;SDS011;54227;45.198;5.732;2022-09-09T15:18:56;0.17;;;0.17;;
67340;SDS011;54227;45.198;5.732;2022-09-09T15:21:23;0.30;;;0.20;;
67340;SDS011;54227;45.198;5.732;2022-09-09T15:23:50;0.32;;;0.20;;
67340;SDS011;54227;45.198;5.732;2022-09-09T15:26:16;0.30;;;0.30;;
67340;SDS011;54227;45.198;5.732;2022-09-09T15:28:43;0.20;;;0.17;;
67340;SDS011;54227;45.198;5.732;2022-09-09T15:33:40;0.75;;;0.30;;
67340;SDS011;54227;45.198;5.732;2022-09-09T15:36:16;0.82;;;0.20;;
67340;SDS011;54227;45.198;5.732;2022-09-09T15:38:42;0.25;;;0.20;;
67340;SDS011;54227;45.198;5.732;2022-09-09T15:41:08;1.15;;;0.20;;
67340;SDS011;54227;45.198;5.732;2022-09-09T15:43:33;0.17;;;0.17;;
67340;SDS011;54227;45.198;5.732;2022-09-09T15:45:59;0.47;;;0.15;;
67340;SDS011;54227;45.198;5.732;2022-09-09T15:48:48;0.25;;;0.10;;
67340;SDS011;54227;45.198;5.732;2022-09-09T15:51:14;0.10;;;0.10;;
67340;SDS011;54227;45.198;5.732;2022-09-09T15:53:39;0.20;;;0.20;;
67340;SDS011;54227;45.198;5.732;2022-09-09T15:56:05;0.35;;;0.15;;
67340;SDS011;54227;45.198;5.732;2022-09-09T15:58:31;0.57;;;0.30;;
67340;SDS011;54227;45.198;5.732;2022-09-09T16:01:07;0.20;;;0.20;;
67340;SDS011;54227;45.198;5.732;2022-09-09T16:03:34;0.30;;;0.20;;
67340;SDS011;54227;45.198;5.732;2022-09-09T16:06:00;0.30;;;0.30;;
67340;SDS011;54227;45.198;5.732;2022-09-09T16:08:36;1.27;;;0.30;;
67340;SDS011;54227;45.198;5.732;2022-09-09T16:11:06;0.77;;;0.30;;
67340;SDS011;54227;45.198;5.732;2022-09-09T16:13:34;0.22;;;0.20;;
67340;SDS011;54227;45.198;5.732;2022-09-09T16:16:01;0.75;;;0.20;;
67340;SDS011;54227;45.198;5.732;2022-09-09T16:18:32;1.35;;;0.40;;
67340;SDS011;54227;45.198;5.732;2022-09-09T16:21:01;1.13;;;0.20;;
67340;SDS011;54227;45.198;5.732;2022-09-09T16:23:26;0.15;;;0.10;;
67340;SDS011;54227;45.198;5.732;2022-09-09T16:25:55;0.40;;;0.20;;
67340;SDS011;54227;45.198;5.732;2022-09-09T16:28:21;0.20;;;0.10;;
67340;SDS011;54227;45.198;5.732;2022-09-09T16:30:47;0.85;;;0.22;;
67340;SDS011;54227;45.198;5.732;2022-09-09T16:33:12;0.32;;;0.20;;
67340;SDS011;54227;45.198;5.732;2022-09-09T16:35:40;0.30;;;0.20;;
67340;SDS011;54227;45.198;5.732;2022-09-09T16:38:06;2.17;;;0.20;;
67340;SDS011;54227;45.198;5.732;2022-09-09T16:40:34;0.80;;;0.28;;
67340;SDS011;54227;45.198;5.732;2022-09-09T16:43:00;0.25;;;0.10;;
67340;SDS011;54227;45.198;5.732;2022-09-09T16:45:26;0.40;;;0.20;;
67340;SDS011;54227;45.198;5.732;2022-09-09T16:47:52;0.40;;;0.08;;
67340;SDS011;54227;45.198;5.732;2022-09-09T16:50:17;0.25;;;0.15;;
67340;SDS011;54227;45.198;5.732;2022-09-09T16:52:43;0.10;;;0.10;;
67340;SDS011;54227;45.198;5.732;2022-09-09T16:55:08;0.10;;;0.10;;
67340;SDS011;54227;45.198;5.732;2022-09-09T16:57:34;0.22;;;0.17;;
67340;SDS011;54227;45.198;5.732;2022-09-09T17:00:00;0.55;;;0.10;;
67340;SDS011;54227;45.198;5.732;2022-09-09T17:02:26;0.30;;;0.17;;
67340;SDS011;54227;45.198;5.732;2022-09-09T17:04:51;0.45;;;0.10;;
67340;SDS011;54227;45.198;5.732;2022-09-09T17:07:17;0.10;;;0.10;;
67340;SDS011;54227;45.198;5.732;2022-09-09T17:09:44;0.00;;;0.00;;
67340;SDS011;54227;45.198;5.732;2022-09-09T17:12:10;0.00;;;0.00;;
67340;SDS011;54227;45.198;5.732;2022-09-09T17:14:37;0.20;;;0.10;;
67340;SDS011;54227;45.198;5.732;2022-09-09T17:17:02;0.13;;;0.10;;
67340;SDS011;54227;45.198;5.732;2022-09-09T17:19:29;0.10;;;0.10;;
67340;SDS011;54227;45.198;5.732;2022-09-09T17:21:55;0.10;;;0.10;;
67340;SDS011;54227;45.198;5.732;2022-09-09T17:24:22;0.00;;;0.00;;
67340;SDS011;54227;45.198;5.732;2022-09-09T17:26:47;0.03;;;0.03;;
67340;SDS011;54227;45.198;5.732;2022-09-09T17:29:13;0.10;;;0.10;;
67340;SDS011;54227;45.198;5.732;2022-09-09T17:31:38;0.15;;;0.10;;
67340;SDS011;54227;45.198;5.732;2022-09-09T17:34:05;0.15;;;0.10;;
67340;SDS011;54227;45.198;5.732;2022-09-09T17:36:33;0.20;;;0.10;;
67340;SDS011;54227;45.198;5.732;2022-09-09T17:38:59;0.10;;;0.10;;